Time,TemperatureF,DewpointF,PressureIn,WindDirection,WindDirectionDegrees,WindSpeedMPH,WindSpeedGustMPH,Humidity,HourlyPrecipIn,Conditions,Clouds,dailyrainin,SoftwareType,DateUTC
2013-04-18 00:04:00,67.2,62.0,29.85,SSE,151,3.0,7.0,83,0.00,,,0.00,weatherlink.com 1.10,2013-04-18 04:04:00,
2013-04-18 00:19:00,67.3,62.0,29.85,SSE,166,5.0,7.0,83,0.00,,,0.00,weatherlink.com 1.10,2013-04-18 04:19:00,
2013-04-18 00:34:00,67.2,62.0,29.85,South,171,0.0,7.0,82,0.00,,,0.00,weatherlink.com 1.10,2013-04-18 04:34:00,
2013-04-18 00:49:00,67.0,62.0,29.85,SE,143,3.0,7.0,83,0.00,,,0.00,weatherlink.com 1.10,2013-04-18 04:49:00,
2013-04-18 01:04:00,67.0,61.0,29.85,South,186,6.0,7.0,82,0.00,,,0.00,weatherlink.com 1.10,2013-04-18 05:04:00,
2013-04-18 01:19:00,67.0,61.0,29.84,South,175,1.0,8.0,82,0.00,,,0.00,weatherlink.com 1.10,2013-04-18 05:19:00,
2013-04-18 01:34:00,67.1,61.0,29.84,South,188,4.0,9.0,82,0.00,,,0.00,weatherlink.com 1.10,2013-04-18 05:34:00,
2013-04-18 01:49:00,67.0,61.0,29.83,SE,145,3.0,10.0,82,0.00,,,0.00,weatherlink.com 1.10,2013-04-18 05:49:00,
2013-04-18 02:04:00,67.4,61.0,29.83,South,174,7.0,12.0,81,0.00,,,0.00,weatherlink.com 1.10,2013-04-18 06:04:00,
2013-04-18 02:19:00,67.5,62.0,29.83,South,174,8.0,8.0,81,0.00,,,0.00,weatherlink.com 1.10,2013-04-18 06:19:00,
2013-04-18 02:34:00,67.4,61.0,29.82,South,175,6.0,8.0,81,0.00,,,0.00,weatherlink.com 1.10,2013-04-18 06:34:00,
2013-04-18 02:49:00,67.4,61.0,29.81,SSW,194,6.0,11.0,81,0.00,,,0.00,weatherlink.com 1.10,2013-04-18 06:49:00,
2013-04-18 03:04:00,67.2,61.0,29.81,South,182,2.0,9.0,81,0.00,,,0.00,weatherlink.com 1.10,2013-04-18 07:04:00,
2013-04-18 03:19:00,66.8,61.0,29.80,SSW,209,6.0,9.0,82,0.00,,,0.00,weatherlink.com 1.10,2013-04-18 07:19:00,
2013-04-18 03:34:00,66.6,61.0,29.79,South,171,6.0,9.0,83,0.00,,,0.00,weatherlink.com 1.10,2013-04-18 07:34:00,
2013-04-18 03:49:00,66.2,61.0,29.78,SSE,155,3.0,8.0,84,0.00,,,0.00,weatherlink.com 1.10,2013-04-18 07:49:00,
2013-04-18 04:04:00,66.3,61.0,29.78,South,185,4.0,10.0,84,0.00,,,0.00,weatherlink.com 1.10,2013-04-18 08:04:00,
2013-04-18 04:19:00,66.6,62.0,29.78,South,173,4.0,12.0,84,0.00,,,0.00,weatherlink.com 1.10,2013-04-18 08:19:00,
2013-04-18 04:34:00,66.5,62.0,29.78,South,171,3.0,9.0,85,0.00,,,0.00,weatherlink.com 1.10,2013-04-18 08:34:00,
2013-04-18 04:49:00,66.6,62.0,29.79,South,175,3.0,6.0,85,0.00,,,0.00,weatherlink.com 1.10,2013-04-18 08:49:00,
2013-04-18 05:04:00,66.5,62.0,29.78,South,184,2.0,7.0,85,0.00,,,0.00,weatherlink.com 1.10,2013-04-18 09:04:00,
2013-04-18 05:19:00,66.6,62.0,29.78,SSW,206,6.0,8.0,86,0.00,,,0.00,weatherlink.com 1.10,2013-04-18 09:19:00,
2013-04-18 05:34:00,66.7,62.0,29.77,SSE,167,3.0,6.0,86,0.00,,,0.00,weatherlink.com 1.10,2013-04-18 09:34:00,
2013-04-18 05:49:00,67.0,63.0,29.76,South,187,3.0,8.0,86,0.00,,,0.00,weatherlink.com 1.10,2013-04-18 09:49:00,
2013-04-18 06:04:00,67.3,63.0,29.77,SSW,195,3.0,8.0,86,0.00,,,0.00,weatherlink.com 1.10,2013-04-18 10:04:00,
2013-04-18 06:19:00,67.6,63.0,29.77,South,179,4.0,10.0,86,0.00,,,0.00,weatherlink.com 1.10,2013-04-18 10:19:00,
2013-04-18 06:34:00,67.6,63.0,29.76,SSE,160,4.0,5.0,86,0.00,,,0.00,weatherlink.com 1.10,2013-04-18 10:34:00,
2013-04-18 06:49:00,67.9,64.0,29.77,South,176,6.0,8.0,86,0.00,,,0.00,weatherlink.com 1.10,2013-04-18 10:49:00,
2013-04-18 07:04:00,68.1,64.0,29.77,South,169,7.0,8.0,87,0.00,,,0.00,weatherlink.com 1.10,2013-04-18 11:04:00,
2013-04-18 07:19:00,68.3,64.0,29.77,SSW,193,4.0,11.0,86,0.00,,,0.00,weatherlink.com 1.10,2013-04-18 11:19:00,
2013-04-18 07:34:00,68.6,64.0,29.78,SE,139,3.0,11.0,86,0.00,,,0.00,weatherlink.com 1.10,2013-04-18 11:34:00,
2013-04-18 07:49:00,69.0,65.0,29.79,South,179,4.0,11.0,86,0.00,,,0.00,weatherlink.com 1.10,2013-04-18 11:49:00,
2013-04-18 08:04:00,69.3,65.0,29.78,SSE,165,2.0,10.0,86,0.00,,,0.00,weatherlink.com 1.10,2013-04-18 12:04:00,
2013-04-18 08:19:00,69.8,65.0,29.79,SSE,147,5.0,10.0,85,0.00,,,0.00,weatherlink.com 1.10,2013-04-18 12:19:00,
2013-04-18 08:35:00,70.1,65.0,29.78,South,186,3.0,12.0,84,0.00,,,0.00,weatherlink.com 1.10,2013-04-18 12:35:00,
2013-04-18 08:50:00,70.7,65.0,29.78,SSE,153,9.0,12.0,83,0.00,,,0.00,weatherlink.com 1.10,2013-04-18 12:50:00,
2013-04-18 09:05:00,71.3,65.0,29.78,South,177,8.0,18.0,81,0.00,,,0.00,weatherlink.com 1.10,2013-04-18 13:05:00,
2013-04-18 09:20:00,72.2,66.0,29.77,SSE,165,10.0,18.0,80,0.00,,,0.00,weatherlink.com 1.10,2013-04-18 13:20:00,
2013-04-18 09:35:00,73.0,66.0,29.77,South,179,7.0,18.0,79,0.00,,,0.00,weatherlink.com 1.10,2013-04-18 13:35:00,
2013-04-18 09:50:00,73.1,66.0,29.77,South,182,5.0,17.0,77,0.00,,,0.00,weatherlink.com 1.10,2013-04-18 13:50:00,
2013-04-18 10:05:00,73.5,66.0,29.76,SSW,198,10.0,17.0,77,0.00,,,0.00,weatherlink.com 1.10,2013-04-18 14:05:00,
2013-04-18 10:20:00,73.5,66.0,29.76,SSE,167,6.0,16.0,77,0.00,,,0.00,weatherlink.com 1.10,2013-04-18 14:20:00,
2013-04-18 10:35:00,74.1,66.0,29.76,South,179,5.0,22.0,76,0.00,,,0.00,weatherlink.com 1.10,2013-04-18 14:35:00,
2013-04-18 10:50:00,74.8,66.0,29.76,SSE,147,8.0,22.0,73,0.00,,,0.00,weatherlink.com 1.10,2013-04-18 14:50:00,
2013-04-18 11:05:00,75.4,66.0,29.75,SSW,195,7.0,17.0,73,0.00,,,0.00,weatherlink.com 1.10,2013-04-18 15:05:00,
2013-04-18 11:20:00,76.0,66.0,29.75,SE,133,5.0,18.0,72,0.00,,,0.00,weatherlink.com 1.10,2013-04-18 15:20:00,
2013-04-18 11:35:00,76.4,65.0,29.75,SSW,207,7.0,19.0,68,0.00,,,0.00,weatherlink.com 1.10,2013-04-18 15:35:00,
2013-04-18 11:50:00,77.6,67.0,29.75,SE,131,5.0,18.0,69,0.00,,,0.00,weatherlink.com 1.10,2013-04-18 15:50:00,
2013-04-18 12:05:00,78.0,65.0,29.75,South,182,13.0,22.0,65,0.00,,,0.00,weatherlink.com 1.10,2013-04-18 16:05:00,
2013-04-18 12:20:00,77.7,65.0,29.74,SSE,149,7.0,17.0,64,0.00,,,0.00,weatherlink.com 1.10,2013-04-18 16:20:00,
2013-04-18 12:35:00,77.5,65.0,29.74,SSW,211,6.0,17.0,66,0.00,,,0.00,weatherlink.com 1.10,2013-04-18 16:35:00,
2013-04-18 12:50:00,79.1,64.0,29.73,South,171,7.0,21.0,61,0.00,,,0.00,weatherlink.com 1.10,2013-04-18 16:50:00,
2013-04-18 13:05:00,79.5,65.0,29.72,SE,138,13.0,17.0,61,0.00,,,0.00,weatherlink.com 1.10,2013-04-18 17:05:00,
2013-04-18 13:20:00,78.9,64.0,29.72,SSE,152,9.0,21.0,61,0.00,,,0.00,weatherlink.com 1.10,2013-04-18 17:20:00,
2013-04-18 13:35:00,79.4,64.0,29.71,SSW,200,10.0,22.0,59,0.00,,,0.00,weatherlink.com 1.10,2013-04-18 17:35:00,
2013-04-18 13:50:00,80.0,64.0,29.70,South,180,12.0,22.0,59,0.00,,,0.00,weatherlink.com 1.10,2013-04-18 17:50:00,
2013-04-18 14:05:00,81.0,63.0,29.70,ESE,116,11.0,16.0,55,0.00,,,0.00,weatherlink.com 1.10,2013-04-18 18:05:00,
2013-04-18 14:20:00,80.9,63.0,29.69,SE,135,11.0,18.0,54,0.00,,,0.00,weatherlink.com 1.10,2013-04-18 18:20:00,
2013-04-18 14:35:00,80.6,62.0,29.69,South,170,11.0,26.0,53,0.00,,,0.00,weatherlink.com 1.10,2013-04-18 18:35:00,
2013-04-18 14:50:00,80.2,61.0,29.68,SSW,208,9.0,22.0,53,0.00,,,0.00,weatherlink.com 1.10,2013-04-18 18:50:00,
2013-04-18 15:05:00,80.2,60.0,29.68,South,180,6.0,18.0,51,0.00,,,0.00,weatherlink.com 1.10,2013-04-18 19:05:00,
2013-04-18 15:20:00,79.9,60.0,29.67,South,190,12.0,19.0,50,0.00,,,0.00,weatherlink.com 1.10,2013-04-18 19:20:00,
2013-04-18 15:35:00,79.6,60.0,29.66,SE,134,15.0,23.0,52,0.00,,,0.00,weatherlink.com 1.10,2013-04-18 19:35:00,
2013-04-18 15:51:00,80.1,60.0,29.66,SSW,197,13.0,20.0,50,0.00,,,0.00,weatherlink.com 1.10,2013-04-18 19:51:00,
2013-04-18 16:06:00,78.7,60.0,29.66,ESE,123,10.0,17.0,52,0.00,,,0.00,weatherlink.com 1.10,2013-04-18 20:06:00,
2013-04-18 16:21:00,78.9,60.0,29.66,SW,223,14.0,17.0,53,0.00,,,0.00,weatherlink.com 1.10,2013-04-18 20:21:00,
2013-04-18 16:36:00,79.8,61.0,29.65,SSW,194,7.0,18.0,52,0.00,,,0.00,weatherlink.com 1.10,2013-04-18 20:36:00,
2013-04-18 16:51:00,80.0,61.0,29.64,South,180,16.0,22.0,52,0.00,,,0.00,weatherlink.com 1.10,2013-04-18 20:51:00,
2013-04-18 17:06:00,79.1,61.0,29.64,South,182,6.0,16.0,54,0.00,,,0.00,weatherlink.com 1.10,2013-04-18 21:06:00,
2013-04-18 17:21:00,79.6,60.0,29.63,SE,124,5.0,14.0,52,0.00,,,0.00,weatherlink.com 1.10,2013-04-18 21:21:00,
2013-04-18 17:36:00,79.1,60.0,29.63,SE,130,4.0,16.0,53,0.00,,,0.00,weatherlink.com 1.10,2013-04-18 21:36:00,
2013-04-18 17:51:00,78.8,60.0,29.63,South,187,10.0,18.0,52,0.00,,,0.00,weatherlink.com 1.10,2013-04-18 21:51:00,
2013-04-18 18:06:00,78.8,60.0,29.62,SSW,206,11.0,18.0,52,0.00,,,0.00,weatherlink.com 1.10,2013-04-18 22:06:00,
2013-04-18 18:21:00,78.8,60.0,29.61,SSW,195,7.0,20.0,52,0.00,,,0.00,weatherlink.com 1.10,2013-04-18 22:21:00,
2013-04-18 18:36:00,78.3,59.0,29.61,SSE,147,6.0,21.0,52,0.00,,,0.00,weatherlink.com 1.10,2013-04-18 22:36:00,
2013-04-18 18:51:00,78.1,59.0,29.61,South,191,9.0,18.0,52,0.00,,,0.00,weatherlink.com 1.10,2013-04-18 22:51:00,
2013-04-18 19:06:00,77.8,59.0,29.61,South,190,10.0,19.0,53,0.00,,,0.00,weatherlink.com 1.10,2013-04-18 23:06:00,
2013-04-18 19:21:00,77.7,59.0,29.59,SE,146,5.0,21.0,53,0.00,,,0.00,weatherlink.com 1.10,2013-04-18 23:21:00,
2013-04-18 19:36:00,77.5,59.0,29.59,South,188,8.0,25.0,53,0.00,,,0.00,weatherlink.com 1.10,2013-04-18 23:36:00,
2013-04-18 19:51:00,77.4,59.0,29.59,South,171,5.0,19.0,53,0.00,,,0.00,weatherlink.com 1.10,2013-04-18 23:51:00,
2013-04-18 20:06:00,77.1,59.0,29.59,SSW,194,12.0,17.0,53,0.00,,,0.00,weatherlink.com 1.10,2013-04-19 00:06:00,
2013-04-18 20:21:00,76.7,58.0,29.59,ESE,119,9.0,19.0,53,0.00,,,0.00,weatherlink.com 1.10,2013-04-19 00:21:00,
2013-04-18 20:36:00,76.6,58.0,29.58,WSW,248,7.0,20.0,53,0.00,,,0.00,weatherlink.com 1.10,2013-04-19 00:36:00,
2013-04-18 20:51:00,76.1,58.0,29.59,South,182,4.0,12.0,54,0.00,,,0.00,weatherlink.com 1.10,2013-04-19 00:51:00,
2013-04-18 21:06:00,76.2,58.0,29.59,SSW,195,3.0,17.0,54,0.00,,,0.00,weatherlink.com 1.10,2013-04-19 01:06:00,
2013-04-18 21:21:00,76.1,58.0,29.59,South,182,5.0,16.0,54,0.00,,,0.00,weatherlink.com 1.10,2013-04-19 01:21:00,
2013-04-18 21:36:00,76.0,58.0,29.59,SSW,195,3.0,15.0,53,0.00,,,0.00,weatherlink.com 1.10,2013-04-19 01:36:00,
2013-04-18 21:51:00,75.8,58.0,29.58,South,175,8.0,18.0,54,0.00,,,0.00,weatherlink.com 1.10,2013-04-19 01:51:00,
2013-04-18 22:06:00,75.8,57.0,29.58,South,176,9.0,22.0,53,0.00,,,0.00,weatherlink.com 1.10,2013-04-19 02:06:00,
2013-04-18 22:21:00,74.6,60.0,29.57,WNW,290,4.0,12.0,61,0.00,,,0.00,weatherlink.com 1.10,2013-04-19 02:21:00,
2013-04-18 22:36:00,70.4,61.0,29.56,WSW,258,1.0,9.0,72,0.00,,,0.00,weatherlink.com 1.10,2013-04-19 02:36:00,
2013-04-18 22:51:00,69.2,61.0,29.57,West,271,3.0,5.0,75,0.00,,,0.00,weatherlink.com 1.10,2013-04-19 02:51:00,
2013-04-18 23:06:00,68.2,61.0,29.56,WSW,251,0.0,8.0,78,0.00,,,0.00,weatherlink.com 1.10,2013-04-19 03:06:00,
2013-04-18 23:21:00,66.5,62.0,29.56,SW,235,1.0,11.0,84,0.01,,,0.01,weatherlink.com 1.10,2013-04-19 03:21:00,
2013-04-18 23:36:00,65.4,62.0,29.55,SW,235,0.0,4.0,88,0.02,,,0.02,weatherlink.com 1.10,2013-04-19 03:36:00,
2013-04-18 23:51:00,64.6,62.0,29.56,SW,228,2.0,5.0,91,0.09,,,0.09,weatherlink.com 1.10,2013-04-19 03:51:00,